Data for 01/26/2014

Time Sea-Level Adjusted Pressure Absolute Pressure Temperature Relative Humidity Dew Point   
(mb) (inHg) (mb) (inHg) (C) (F) (%) (C) (F)
00:05 1020 30.12 849 25.07 1.2 34.2 59 -6 21.2
00:10 1020 30.12 849 25.07 1 33.7 59 -6.1 21.1
00:15 1020 30.12 849 25.07 0.7 33.3 61 -6 21.1
00:20 1020 30.12 849 25.07 1 33.7 60 -5.9 21.3
00:25 1020 30.12 849 25.07 1 33.8 60 -6 21.2
00:30 1020 30.12 849 25.07 1.2 34.1 59 -5.9 21.4
00:35 1020 30.12 849 25.07 1.3 34.3 59 -5.8 21.5
00:40 1020 30.12 849 25.07 1.6 34.8 58 -5.7 21.7
00:45 1020 30.12 849 25.07 1.6 34.9 58 -5.8 21.6
00:50 1019 30.09 849 25.07 1.6 34.9 59 -5.7 21.8
00:55 1019 30.09 849 25.07 1.6 34.8 59 -5.7 21.8
01:00 1019 30.09 848 25.04 1.6 34.9 58 -5.7 21.7
01:05 1019 30.09 848 25.04 1.8 35.2 57 -5.8 21.5
01:10 1019 30.09 848 25.04 2 35.6 57 -5.8 21.6
01:15 1019 30.09 848 25.04 2.1 35.8 56 -5.7 21.7
01:20 1019 30.09 848 25.04 2.2 36 56 -5.7 21.8
01:25 1019 30.09 848 25.04 2.3 36.1 56 -5.6 22
01:30 1019 30.09 848 25.04 2.4 36.2 55 -5.7 21.7
01:35 1019 30.09 848 25.04 2.4 36.4 54 -6 21.3
01:40 1019 30.09 848 25.04 2.7 36.8 53 -5.9 21.4
01:45 1019 30.09 848 25.04 2.7 36.8 55 -5.4 22.2
01:50 1018 30.06 848 25.04 2.4 36.3 58 -5.1 22.7
01:55 1018 30.06 848 25.04 1.6 34.9 62 -5 23
02:00 1018 30.06 848 25.04 1.3 34.3 61 -5.5 22.2
02:05 1018 30.06 848 25.04 1.4 34.5 59 -5.7 21.8
02:10 1018 30.06 848 25.04 1.6 34.9 58 -5.7 21.7
02:15 1018 30.06 848 25.04 1.9 35.4 58 -5.4 22.2
02:20 1018 30.06 848 25.04 2.1 35.8 57 -5.6 21.9
02:25 1018 30.06 847 25.01 2.2 36 59 -5 23
02:30 1018 30.06 847 25.01 2.1 35.8 59 -5.1 22.7
02:35 1018 30.06 847 25.01 2.1 35.7 59 -5 22.9
02:40 1018 30.06 847 25.01 2 35.7 59 -5.2 22.7
02:45 1018 30.06 847 25.01 2.2 35.9 58 -5.3 22.5
02:50 1018 30.06 847 25.01 2.3 36.1 57 -5.3 22.5
02:55 1018 30.06 847 25.01 2.3 36.1 57 -5.3 22.5
03:00 1018 30.06 847 25.01 2.3 36.1 58 -5.2 22.7
03:05 1018 30.06 847 25.01 2.2 36 59 -4.9 23.2
03:10 1018 30.06 847 25.01 2 35.6 61 -4.8 23.4
03:15 1018 30.06 847 25.01 1.8 35.3 61 -4.9 23.2
03:20 1018 30.06 847 25.01 1.8 35.2 62 -4.8 23.4
03:25 1018 30.06 847 25.01 1.7 35 62 -4.8 23.3
03:30 1018 30.06 847 25.01 1.5 34.7 64 -4.5 23.9
03:35 1018 30.06 847 25.01 1.3 34.3 64 -4.8 23.4
03:40 1018 30.06 847 25.01 1.4 34.4 63 -4.9 23.2
03:45 1018 30.06 847 25.01 1.5 34.7 62 -5.1 22.8
03:50 1018 30.06 847 25.01 1.5 34.7 63 -4.7 23.5
03:55 1018 30.06 847 25.01 1.3 34.3 64 -4.8 23.4
04:00 1018 30.06 847 25.01 1.3 34.3 62 -5.2 22.6
04:05 1018 30.06 847 25.01 1.7 35 59 -5.6 22
04:10 1018 30.06 847 25.01 1.9 35.4 60 -5.2 22.7
04:15 1018 30.06 847 25.01 1.6 34.9 62 -5 23.1
04:20 1018 30.06 847 25.01 1.4 34.4 61 -5.4 22.3
04:25 1017 30.03 847 25.01 1.5 34.7 59 -5.6 22
04:30 1017 30.03 847 25.01 1.7 35.1 58 -5.7 21.7
04:35 1017 30.03 847 25.01 1.9 35.5 57 -5.6 21.9
04:40 1017 30.03 847 25.01 1.9 35.4 58 -5.5 22.1
04:45 1017 30.03 846 24.98 1.7 35.1 61 -4.9 23.2
04:50 1017 30.03 846 24.98 1.4 34.4 64 -4.8 23.3
04:55 1017 30.03 846 24.98 0.9 33.6 66 -4.7 23.6
05:00 1017 30.03 846 24.98 0.6 33 65 -5.3 22.4
05:05 1017 30.03 846 24.98 0.4 32.8 67 -4.9 23.1
05:10 1017 30.03 846 24.98 0.3 32.5 69 -4.7 23.5
05:15 1017 30.03 846 24.98 0.1 32.3 67 -5.3 22.4
05:20 1017 30.03 846 24.98 -0 31.9 67 -5.4 22.2
05:25 1017 30.03 846 24.98 -0.1 31.9 67 -5.5 22.1
05:30 1017 30.03 846 24.98 -0.1 31.9 67 -5.5 22.2
05:35 1017 30.03 846 24.98 -0.2 31.7 65 -5.9 21.3
05:40 1017 30.03 846 24.98 -0.5 31 67 -6 21.2
05:45 1017 30.03 846 24.98 -0.7 30.7 67 -6.1 21
05:50 1017 30.03 846 24.98 -0.7 30.7 66 -6.3 20.6
05:55 1017 30.03 846 24.98 -0.8 30.5 67 -6.3 20.7
06:00 1017 30.03 846 24.98 -0.5 31 65 -6.4 20.5
06:05 1017 30.03 846 24.98 -0.3 31.5 65 -6.1 20.9
06:10 1017 30.03 846 24.98 -0.3 31.4 65 -6.2 20.9
06:15 1017 30.03 846 24.98 -0.4 31.4 65 -6.2 20.9
06:20 1017 30.03 846 24.98 -0.5 31.1 64 -6.5 20.4
06:25 1017 30.03 846 24.98 -0.3 31.4 64 -6.3 20.6
06:30 1017 30.03 846 24.98 -0.2 31.6 64 -6.3 20.7
06:35 1017 30.03 846 24.98 -0.3 31.5 65 -6.2 20.9
06:40 1017 30.03 846 24.98 -0.4 31.3 65 -6.1 20.9
06:45 1017 30.03 846 24.98 -0.3 31.5 63 -6.5 20.2
06:50 1017 30.03 847 25.01 -0 32 61 -6.7 19.9
06:55 1017 30.03 847 25.01 0.3 32.5 62 -6.1 21
07:00 1017 30.03 847 25.01 0.2 32.3 61 -6.5 20.2
07:05 1017 30.03 847 25.01 0 32.1 63 -6.1 21
07:10 1018 30.06 847 25.01 -0 32 63 -6.3 20.6
07:15 1018 30.06 847 25.01 0.1 32.1 58 -7.2 19.1
07:20 1018 30.06 847 25.01 0.5 32.9 57 -7 19.4
07:25 1018 30.06 847 25.01 0.6 33.1 56 -7.2 19
07:30 1018 30.06 847 25.01 0.6 33.1 55 -7.5 18.5
07:35 1017 30.03 847 25.01 0.7 33.2 56 -7.1 19.3
07:40 1017 30.03 847 25.01 0.3 32.5 62 -6.2 20.8
07:45 1017 30.03 847 25.01 -0.1 31.9 62 -6.5 20.3
07:50 1018 30.06 847 25.01 -0.1 31.9 62 -6.5 20.3
07:55 1018 30.06 847 25.01 -0 31.9 63 -6.2 20.9
08:00 1018 30.06 847 25.01 -0.2 31.7 64 -6.3 20.7
08:05 1018 30.06 847 25.01 -0.4 31.3 68 -5.7 21.8
08:10 1018 30.06 847 25.01 -0.7 30.7 67 -6.2 20.9
08:15 1018 30.06 847 25.01 -0.6 31 62 -7 19.4
08:20 1018 30.06 847 25.01 -0.3 31.5 60 -7 19.3
08:25 1018 30.06 847 25.01 -0 32 58 -7.4 18.8
08:30 1018 30.06 847 25.01 0.2 32.4 57 -7.3 18.9
08:35 1018 30.06 847 25.01 0.3 32.5 58 -7.1 19.3
08:40 1018 30.06 847 25.01 0.4 32.7 57 -7.2 19.1
08:45 1018 30.06 847 25.01 0.4 32.8 59 -6.8 19.8
08:50 1018 30.06 847 25.01 0.3 32.6 57 -7.2 19.1
08:55 1018 30.06 847 25.01 0.4 32.7 60 -6.4 20.4
09:00 1018 30.06 847 25.01 0.4 32.6 58 -7 19.3
09:05 1018 30.06 847 25.01 0.5 32.8 60 -6.4 20.5
09:10 1018 30.06 847 25.01 0.4 32.8 59 -6.6 20.1
09:15 1018 30.06 847 25.01 0.4 32.8 60 -6.6 20.2
09:20 1018 30.06 847 25.01 0.4 32.8 61 -6.3 20.6
09:25 1018 30.06 848 25.04 0.4 32.7 58 -6.9 19.5
09:30 1018 30.06 848 25.04 0.5 32.8 63 -5.9 21.4
09:35 1019 30.09 848 25.04 0.2 32.4 65 -5.6 21.8
09:40 1019 30.09 848 25.04 0.1 32.1 66 -5.5 22.1
09:45 1019 30.09 848 25.04 -0 31.9 65 -5.8 21.5
09:50 1019 30.09 848 25.04 0 32 62 -6.3 20.6
09:55 1019 30.09 848 25.04 0.1 32.2 60 -6.6 20
10:00 1019 30.09 848 25.04 0.2 32.3 59 -7 19.4
10:05 1019 30.09 849 25.07 0.1 32.3 56 -7.6 18.2
10:10 1020 30.12 849 25.07 0 32 57 -7.6 18.3
10:15 1020 30.12 849 25.07 -0.2 31.6 60 -7.2 19.1
10:20 1020 30.12 849 25.07 -0.4 31.3 63 -6.6 20.2
10:25 1020 30.12 849 25.07 -0.4 31.3 67 -5.9 21.4
10:30 1020 30.12 849 25.07 -0.4 31.3 73 -4.7 23.5
10:35 1020 30.12 849 25.07 -0.6 30.9 79 -3.9 25.1
10:40 1020 30.12 850 25.1 -1 30.2 85 -3.1 26.4
10:45 1020 30.12 850 25.1 -1.2 29.9 89 -2.8 27
10:50 1021 30.15 850 25.1 -1.2 29.8 90 -2.6 27.3
10:55 1021 30.15 850 25.1 -1.3 29.7 91 -2.6 27.4
11:00 1021 30.15 850 25.1 -1.3 29.6 91 -2.6 27.3
11:05 1021 30.15 850 25.1 -1.5 29.3 92 -2.6 27.3
11:10 1021 30.15 850 25.1 -1.6 29.1 93 -2.6 27.4
11:15 1021 30.15 850 25.1 -1.5 29.2 93 -2.5 27.6
11:20 1021 30.15 850 25.1 -1.5 29.3 94 -2.4 27.7
11:25 1021 30.15 850 25.1 -1.5 29.3 93 -2.4 27.6
11:30 1021 30.15 850 25.1 -1.7 29 93 -2.7 27.2
11:35 1021 30.15 850 25.1 -1.9 28.7 93 -2.8 26.9
11:40 1021 30.15 851 25.13 -2 28.4 93 -3 26.5
11:45 1021 30.15 851 25.13 -2.1 28.3 93 -3.1 26.5
11:50 1022 30.18 851 25.13 -1.9 28.6 93 -2.9 26.8
11:55 1022 30.18 851 25.13 -1.6 29.2 92 -2.7 27.2
12:00 1022 30.18 851 25.13 -1.5 29.2 92 -2.7 27.1
12:05 1022 30.18 851 25.13 -1.5 29.3 92 -2.7 27.2
12:10 1022 30.18 851 25.13 -1.4 29.6 91 -2.6 27.3
12:15 1022 30.18 851 25.13 -1.2 29.8 91 -2.5 27.5
12:20 1022 30.18 851 25.13 -1 30.1 91 -2.4 27.7
12:25 1022 30.18 851 25.13 -1 30.2 91 -2.4 27.8
12:30 1022 30.18 851 25.13 -1 30.3 91 -2.3 27.9
12:35 1022 30.18 851 25.13 -0.8 30.5 91 -2.1 28.1
12:40 1022 30.18 851 25.13 -0.7 30.7 91 -2 28.4
12:45 1022 30.18 851 25.13 -0.5 31.1 91 -1.8 28.7
12:50 1022 30.18 851 25.13 -0.4 31.2 89 -2 28.5
12:55 1022 30.18 851 25.13 -0.4 31.3 89 -2 28.4
13:00 1022 30.18 851 25.13 -0.3 31.5 88 -2.1 28.2
13:05 1022 30.18 851 25.13 -0.2 31.6 87 -2.1 28.2
13:10 1022 30.18 851 25.13 -0.2 31.6 87 -2.1 28.2
13:15 1022 30.18 851 25.13 -0.2 31.7 86 -2.2 28
13:20 1022 30.18 851 25.13 -0.1 31.9 85 -2.2 28
13:25 1022 30.18 851 25.13 -0.1 31.9 85 -2.3 27.8
13:30 1022 30.18 851 25.13 0.1 32.2 82 -2.6 27.2
13:35 1022 30.18 851 25.13 0.3 32.5 80 -2.8 27
13:40 1022 30.18 851 25.13 0.3 32.6 77 -3.2 26.3
13:45 1022 30.18 851 25.13 0.4 32.6 75 -3.5 25.7
13:50 1022 30.18 851 25.13 0.4 32.6 75 -3.6 25.5
13:55 1022 30.18 851 25.13 0.4 32.7 75 -3.6 25.5
14:00 1022 30.18 851 25.13 0.5 32.8 74 -3.6 25.5
14:05 1022 30.18 851 25.13 0.5 32.9 73 -3.8 25.1
14:10 1022 30.18 851 25.13 0.5 33 70 -4.2 24.4
14:15 1022 30.18 851 25.13 0.4 32.7 69 -4.6 23.8
14:20 1022 30.18 851 25.13 0.1 32.2 71 -4.6 23.7
14:25 1022 30.18 851 25.13 -0.1 31.8 71 -4.7 23.6
14:30 1022 30.18 851 25.13 -0.7 30.7 74 -4.9 23.3
14:35 1022 30.18 851 25.13 -1.2 29.9 74 -5.2 22.7
14:40 1022 30.18 851 25.13 -1.2 29.8 75 -5.1 22.8
14:45 1022 30.18 851 25.13 -1.1 30 73 -5.3 22.4
14:50 1022 30.18 851 25.13 -1.1 29.9 72 -5.5 22.1
14:55 1022 30.18 851 25.13 -1.5 29.3 75 -5.4 22.3
15:00 1022 30.18 851 25.13 -1.9 28.6 75 -5.8 21.6
15:05 1022 30.18 851 25.13 -2.1 28.3 74 -6.1 20.9
15:10 1022 30.18 851 25.13 -2.6 27.4 68 -7.7 18.2
15:15 1022 30.18 851 25.13 -2.8 27 68 -7.8 17.9
15:20 1022 30.18 851 25.13 -2.8 26.9 70 -7.5 18.5
15:25 1022 30.18 851 25.13 -3 26.6 71 -7.6 18.3
15:30 1022 30.18 851 25.13 -2.9 26.8 70 -7.6 18.3
15:35 1022 30.18 852 25.16 -3 26.6 68 -8 17.6
15:40 1022 30.18 852 25.16 -3.3 26.1 68 -8.3 17
15:45 1022 30.18 852 25.16 -3.3 26.1 67 -8.6 16.5
15:50 1022 30.18 852 25.16 -3.3 26.1 67 -8.6 16.6
15:55 1022 30.18 852 25.16 -3.2 26.2 67 -8.4 16.8
16:00 1023 30.21 852 25.16 -3.4 25.9 67 -8.6 16.5
16:05 1023 30.21 852 25.16 -3.5 25.7 66 -8.9 16
16:10 1023 30.21 852 25.16 -3.5 25.7 52 -12.1 10.2
16:15 1023 30.21 852 25.16 -3.1 26.3 54 -11.1 12
16:20 1023 30.21 852 25.16 -3.1 26.4 50 -12.3 9.9
16:25 1023 30.21 852 25.16 -3.2 26.2 51 -12 10.4
16:30 1023 30.21 852 25.16 -3.5 25.8 50 -12.5 9.5
16:35 1023 30.21 852 25.16 -3.5 25.7 42 -14.7 5.6
16:40 1023 30.21 852 25.16 -3.4 25.9 50 -12.3 9.9
16:45 1023 30.21 852 25.16 -3.4 25.8 42 -14.6 5.6
16:50 1023 30.21 852 25.16 -3.6 25.6 42 -14.7 5.6
16:55 1023 30.21 853 25.19 -3.7 25.3 40 -15.6 4
17:00 1023 30.21 853 25.19 -4 24.7 38 -16.5 2.3
17:05 1023 30.21 853 25.19 -4.3 24.3 36 -17.1 1.2
17:10 1023 30.21 853 25.19 -4.5 24 38 -16.9 1.7
17:15 1023 30.21 853 25.19 -4.7 23.6 34 -18.3 -1
17:20 1023 30.21 853 25.19 -4.8 23.4 35 -18.2 -0.8
17:25 1023 30.21 853 25.19 -4.8 23.3 36 -17.8 0
17:30 1024 30.24 853 25.19 -5 23.1 45 -15.1 4.8
17:35 1024 30.24 853 25.19 -5.2 22.6 51 -13.9 7
17:40 1024 30.24 853 25.19 -5.5 22.2 50 -14.2 6.4
17:45 1024 30.24 853 25.19 -5.5 22 50 -14.4 6.1
17:50 1024 30.24 853 25.19 -5.6 22 51 -14.3 6.3
17:55 1024 30.24 853 25.19 -5.6 22 51 -14.1 6.6
18:00 1024 30.24 853 25.19 -5.7 21.8 50 -14.6 5.8
18:05 1024 30.24 853 25.19 -5.7 21.7 48 -15.1 4.8
18:10 1024 30.24 853 25.19 -5.8 21.6 49 -14.8 5.3
18:15 1024 30.24 853 25.19 -5.9 21.4 54 -13.8 7.2
18:20 1024 30.24 853 25.19 -6.1 21.1 58 -13 8.5
18:25 1024 30.24 853 25.19 -6.2 20.8 60 -12.7 9.2
18:30 1024 30.24 853 25.19 -6.3 20.6 61 -12.7 9.2
18:35 1024 30.24 853 25.19 -6.5 20.3 62 -12.7 9.2
18:40 1024 30.24 853 25.19 -6.7 20 65 -12.2 10
18:45 1024 30.24 853 25.19 -6.8 19.7 64 -12.5 9.5
18:50 1024 30.24 853 25.19 -6.8 19.8 63 -12.8 9
18:55 1024 30.24 853 25.19 -6.8 19.8 61 -13.1 8.3
19:00 1024 30.24 853 25.19 -6.9 19.6 62 -13.1 8.5
19:05 1024 30.24 853 25.19 -6.9 19.6 61 -13.1 8.4
19:10 1024 30.24 853 25.19 -6.8 19.7 62 -13 8.7
19:15 1024 30.24 853 25.19 -6.7 19.9 61 -13 8.7
19:20 1024 30.24 853 25.19 -6.8 19.8 60 -13.3 8.1
19:25 1024 30.24 853 25.19 -6.8 19.7 62 -13 8.6
19:30 1024 30.24 853 25.19 -6.9 19.6 63 -12.8 9
19:35 1024 30.24 853 25.19 -7 19.4 66 -12.3 9.9
19:40 1024 30.24 853 25.19 -7.2 19.1 65 -12.7 9.1
19:45 1024 30.24 853 25.19 -7.3 18.9 66 -12.6 9.2
19:50 1024 30.24 853 25.19 -7.3 18.8 68 -12.3 9.9
19:55 1024 30.24 853 25.19 -7.3 18.9 68 -12.3 9.8
20:00 1024 30.24 853 25.19 -7.3 18.9 67 -12.5 9.5
20:05 1024 30.24 853 25.19 -7.4 18.8 67 -12.5 9.5
20:10 1024 30.24 853 25.19 -7.4 18.6 66 -12.8 9
20:15 1024 30.24 853 25.19 -7.4 18.6 64 -13.2 8.2
20:20 1024 30.24 853 25.19 -7.5 18.5 66 -12.9 8.8
20:25 1024 30.24 853 25.19 -7.6 18.3 65 -13.1 8.4
20:30 1024 30.24 853 25.19 -7.6 18.4 66 -12.8 8.9
20:35 1024 30.24 853 25.19 -7.6 18.3 66 -13 8.7
20:40 1023 30.21 853 25.19 -7.7 18.2 65 -13.1 8.4
20:45 1023 30.21 853 25.19 -7.7 18.2 65 -13.1 8.4
20:50 1023 30.21 852 25.16 -7.7 18.1 67 -12.9 8.8
20:55 1023 30.21 852 25.16 -7.8 18 67 -12.8 8.9
21:00 1023 30.21 852 25.16 -7.8 18 66 -13.1 8.4
21:05 1023 30.21 852 25.16 -7.8 18 64 -13.4 7.8
21:10 1023 30.21 852 25.16 -7.7 18.2 65 -13.2 8.3
21:15 1023 30.21 852 25.16 -7.6 18.4 65 -13.1 8.4
21:20 1023 30.21 852 25.16 -7.6 18.3 65 -13 8.6
21:25 1023 30.21 852 25.16 -7.6 18.3 67 -12.8 9
21:30 1023 30.21 852 25.16 -7.7 18.2 67 -12.7 9.1
21:35 1023 30.21 852 25.16 -7.7 18.1 68 -12.7 9.2
21:40 1023 30.21 852 25.16 -7.7 18.2 68 -12.6 9.3
21:45 1023 30.21 852 25.16 -7.6 18.3 68 -12.6 9.3
21:50 1023 30.21 852 25.16 -7.6 18.3 67 -12.8 8.9
21:55 1023 30.21 852 25.16 -7.6 18.4 66 -12.9 8.8
22:00 1023 30.21 852 25.16 -7.5 18.4 64 -13.3 8
22:05 1023 30.21 852 25.16 -7.5 18.4 62 -13.7 7.4
22:10 1023 30.21 852 25.16 -7.5 18.5 63 -13.4 7.8
22:15 1023 30.21 852 25.16 -7.5 18.6 60 -13.9 7.1
22:20 1023 30.21 852 25.16 -7.4 18.6 60 -13.9 7
22:25 1023 30.21 852 25.16 -7.4 18.7 61 -13.6 7.5
22:30 1023 30.21 852 25.16 -7.4 18.7 60 -13.8 7.2
22:35 1023 30.21 852 25.16 -7.5 18.6 63 -13.4 7.9
22:40 1023 30.21 852 25.16 -7.6 18.4 63 -13.4 7.9
22:45 1023 30.21 852 25.16 -7.7 18.2 65 -13.2 8.2
22:50 1023 30.21 852 25.16 -7.7 18.1 64 -13.3 8
22:55 1023 30.21 852 25.16 -7.7 18.2 65 -13.2 8.2
23:00 1023 30.21 852 25.16 -7.8 18 68 -12.6 9.2
23:05 1023 30.21 852 25.16 -8 17.7 68 -12.9 8.9
23:10 1023 30.21 852 25.16 -8 17.6 66 -13.3 8
23:15 1023 30.21 852 25.16 -7.9 17.7 66 -13.2 8.2
23:20 1023 30.21 852 25.16 -7.9 17.7 65 -13.4 7.9
23:25 1023 30.21 852 25.16 -8 17.7 65 -13.4 7.9
23:30 1023 30.21 852 25.16 -8 17.7 66 -13.3 8.1
23:35 1023 30.21 852 25.16 -8 17.6 65 -13.6 7.6
23:40 1023 30.21 852 25.16 -8.1 17.5 65 -13.6 7.5
23:45 1023 30.21 852 25.16 -8 17.6 64 -13.8 7.2
23:50 1023 30.21 852 25.16 -8 17.6 63 -13.8 7.2
23:55 1023 30.21 852 25.16 -8 17.6 62 -14 6.8
24:00 1023 30.21 852 25.16 -8.1 17.5 62 -14.1 6.7